Saint-Malachie, Canada
Current Conditions -  °F | °C
As of 5:00 PM on Thursday 18 Dec 2014 (Local Time) from CYQB Reporting Station
Overcast Overcast  
Wind Chill: 23°   Ceiling: 12000
Heat Index: 30°   Visibility: 15mi
Dew Point: 23°   Wind: 8mph
Humidity: 75%   Direction: 330°NNW
Pressure: 29.79"   Gusts: NA
Location:  46.53°N, 70.77°W
Report Text: CYQB 182200Z 33007KT 15SM FEW010 SCT070 OVC120 M01/M05 A2979 RMK SF1AC4AC4 SF TR SLP091
Loading
Personal Weather Stations






























Interactive Weather Map New forecast layout! Learn more

10-Day Weather Forecast

Advertisements
Track Severe Weather on mobile